Time;durP1;ratioP1;P1;durP2;ratioP2;P2;SDS_P1;SDS_P2;PMS_P1;PMS_P2;Temp;Humidity;BMP_temperature;BMP_pressure;BME280_temperature;BME280_humidity;BME280_pressure;Samples;Min_cycle;Max_cycle;Signal;HPM_P1;HPM_P2
2021/04/06 00:00:18;;;;;;;9.07;3.53;;;;;;;;;;5206849;27;20030;-83
2021/04/06 00:02:48;;;;;;;10.88;4.12;;;;;;;;;;5204115;27;20057;-84
2021/04/06 00:05:16;;;;;;;9.60;3.90;;;;;;;;;;5205557;27;20758;-85
2021/04/06 00:07:45;;;;;;;12.73;4.10;;;;;;;;;;5205798;27;20033;-84
2021/04/06 00:10:14;;;;;;;9.35;4.12;;;;;;;;;;5209614;27;20031;-84
2021/04/06 00:12:44;;;;;;;8.27;4.05;;;;;;;;;;5188423;27;20049;-86
2021/04/06 00:15:14;;;;;;;8.00;3.70;;;;;;;;;;5206650;27;20022;-85
2021/04/06 00:17:46;;;;;;;9.88;3.60;;;;;;;;;;5204214;27;20031;-85
2021/04/06 00:20:16;;;;;;;7.57;3.92;;;;;;;;;;5207432;27;20035;-84
2021/04/06 00:22:46;;;;;;;8.48;3.37;;;;;;;;;;5183951;27;20019;-85
2021/04/06 00:25:20;;;;;;;9.73;3.50;;;;;;;;;;5206502;27;20031;-84
2021/04/06 00:27:51;;;;;;;9.55;3.30;;;;;;;;;;5208592;27;20038;-85
2021/04/06 00:30:23;;;;;;;10.23;3.53;;;;;;;;;;5186965;27;20107;-84
2021/04/06 00:32:59;;;;;;;9.55;3.62;;;;;;;;;;5205239;27;20022;-84
2021/04/06 00:35:30;;;;;;;11.80;3.60;;;;;;;;;;5183883;27;20064;-84
2021/04/06 00:37:59;;;;;;;10.63;3.55;;;;;;;;;;5184400;27;20050;-85
2021/04/06 00:40:28;;;;;;;11.55;4.18;;;;;;;;;;5204144;27;20358;-84
2021/04/06 00:43:00;;;;;;;12.02;3.33;;;;;;;;;;5205084;27;20027;-84
2021/04/06 00:45:30;;;;;;;12.98;4.20;;;;;;;;;;5210969;27;20037;-84
2021/04/06 00:48:01;;;;;;;8.43;4.22;;;;;;;;;;5206925;27;20058;-85
2021/04/06 00:50:34;;;;;;;10.70;3.50;;;;;;;;;;5211821;27;20019;-83
2021/04/06 00:53:04;;;;;;;9.50;3.63;;;;;;;;;;5210000;27;20021;-84
2021/04/06 00:55:40;;;;;;;10.60;3.87;;;;;;;;;;5169460;27;20134;-84
2021/04/06 00:58:17;;;;;;;10.55;3.78;;;;;;;;;;5205880;27;20032;-83
2021/04/06 01:00:45;;;;;;;14.20;3.97;;;;;;;;;;5186795;27;20016;-84
2021/04/06 01:03:20;;;;;;;11.77;3.55;;;;;;;;;;5173021;27;20027;-84
2021/04/06 01:06:01;;;;;;;9.98;4.07;;;;;;;;;;5208287;27;20019;-84
2021/04/06 01:08:30;;;;;;;10.48;4.00;;;;;;;;;;5209535;27;20038;-84
2021/04/06 01:11:00;;;;;;;8.30;3.60;;;;;;;;;;5206663;27;20046;-85
2021/04/06 01:13:30;;;;;;;10.93;3.50;;;;;;;;;;5205885;27;20033;-84
2021/04/06 01:15:59;;;;;;;8.45;3.70;;;;;;;;;;5184895;27;20050;-85
2021/04/06 01:18:27;;;;;;;10.02;3.62;;;;;;;;;;5201013;27;20035;-84
2021/04/06 01:21:15;;;;;;;7.90;3.33;;;;;;;;;;5204111;27;20089;-85
2021/04/06 01:23:46;;;;;;;9.15;3.60;;;;;;;;;;5210159;27;20037;-84
2021/04/06 01:26:16;;;;;;;14.55;4.07;;;;;;;;;;5208651;27;20069;-84
2021/04/06 01:28:47;;;;;;;12.90;3.53;;;;;;;;;;5203271;27;20031;-84
2021/04/06 01:31:15;;;;;;;13.65;3.83;;;;;;;;;;5204093;27;20022;-84
2021/04/06 01:33:43;;;;;;;8.85;3.85;;;;;;;;;;5205165;27;20065;-84
2021/04/06 01:36:12;;;;;;;12.57;3.90;;;;;;;;;;5204704;27;20031;-83
2021/04/06 01:38:41;;;;;;;15.10;4.70;;;;;;;;;;5185415;27;20054;-84
2021/04/06 01:41:09;;;;;;;10.80;3.62;;;;;;;;;;5187853;27;20031;-84
2021/04/06 01:43:40;;;;;;;6.97;3.50;;;;;;;;;;5206161;27;20335;-84
2021/04/06 01:46:17;;;;;;;9.98;3.75;;;;;;;;;;5204161;27;20363;-84
2021/04/06 01:48:48;;;;;;;12.32;4.30;;;;;;;;;;5206188;27;20022;-84
2021/04/06 01:51:20;;;;;;;15.35;4.10;;;;;;;;;;5205031;27;20029;-84
2021/04/06 01:53:50;;;;;;;10.75;3.75;;;;;;;;;;5207583;27;20011;-86
2021/04/06 01:56:33;;;;;;;9.50;3.58;;;;;;;;;;5205953;27;20058;-85
2021/04/06 01:59:04;;;;;;;12.45;4.03;;;;;;;;;;5183699;27;20459;-85
2021/04/06 02:01:33;;;;;;;10.25;4.10;;;;;;;;;;5204806;27;20100;-85
2021/04/06 02:04:05;;;;;;;7.32;3.72;;;;;;;;;;5185946;27;20073;-85
2021/04/06 02:06:36;;;;;;;10.07;5.12;;;;;;;;;;5203082;27;20393;-84
2021/04/06 02:09:08;;;;;;;7.45;3.62;;;;;;;;;;5204619;27;20061;-84
2021/04/06 02:11:38;;;;;;;8.93;4.25;;;;;;;;;;5187215;27;20042;-84
2021/04/06 02:14:07;;;;;;;11.43;4.12;;;;;;;;;;5209463;27;20266;-84
2021/04/06 02:16:42;;;;;;;19.73;4.12;;;;;;;;;;5202548;27;20447;-85
2021/04/06 02:19:19;;;;;;;15.20;4.37;;;;;;;;;;5204417;27;20205;-84
2021/04/06 02:21:51;;;;;;;13.00;4.00;;;;;;;;;;5186997;27;20858;-85
2021/04/06 02:24:26;;;;;;;13.70;3.75;;;;;;;;;;5208238;27;20085;-84
2021/04/06 02:26:54;;;;;;;;;;;;;;;;;;5206195;27;20058;-85
2021/04/06 02:29:22;;;;;;;12.75;4.45;;;;;;;;;;5205011;27;20280;-84
2021/04/06 02:31:50;;;;;;;14.07;3.97;;;;;;;;;;5205795;27;20037;-85
2021/04/06 02:34:18;;;;;;;13.80;4.10;;;;;;;;;;5203060;27;20437;-85
2021/04/06 02:36:47;;;;;;;9.95;4.25;;;;;;;;;;5202821;27;20042;-85
2021/04/06 02:39:15;;;;;;;8.43;4.00;;;;;;;;;;5183337;27;20471;-85
2021/04/06 02:41:45;;;;;;;15.52;4.43;;;;;;;;;;5203219;27;20065;-83
2021/04/06 02:44:17;;;;;;;12.27;3.90;;;;;;;;;;5210123;27;20065;-84
2021/04/06 02:46:52;;;;;;;11.05;4.12;;;;;;;;;;5210528;27;20385;-84
2021/04/06 02:49:20;;;;;;;14.32;4.47;;;;;;;;;;5202850;27;20084;-84
2021/04/06 02:52:03;;;;;;;11.23;4.10;;;;;;;;;;5206744;27;20042;-84
2021/04/06 02:54:35;;;;;;;12.65;3.97;;;;;;;;;;5203626;27;20035;-84
2021/04/06 02:57:17;;;;;;;14.38;4.53;;;;;;;;;;5205665;27;20308;-84
2021/04/06 02:59:46;;;;;;;8.15;3.58;;;;;;;;;;5207524;27;20725;-84
2021/04/06 03:02:14;;;;;;;10.73;4.35;;;;;;;;;;5204506;27;20027;-85
2021/04/06 03:04:42;;;;;;;9.90;3.90;;;;;;;;;;5208804;27;20054;-85
2021/04/06 03:07:21;;;;;;;10.23;4.03;;;;;;;;;;5202784;27;20038;-84
2021/04/06 03:09:51;;;;;;;8.88;3.50;;;;;;;;;;5202872;27;20062;-83
2021/04/06 03:12:19;;;;;;;8.07;3.95;;;;;;;;;;5205112;27;20526;-93
2021/04/06 03:14:50;;;;;;;7.82;3.53;;;;;;;;;;5168718;27;20047;-95
2021/04/06 03:17:18;;;;;;;10.98;4.05;;;;;;;;;;5173371;27;20031;-95
2021/04/06 03:20:00;;;;;;;17.08;4.37;;;;;;;;;;5173828;27;20057;-95
2021/04/06 03:22:31;;;;;;;9.85;4.45;;;;;;;;;;5174298;27;20018;-94
2021/04/06 03:25:03;;;;;;;17.17;7.45;;;;;;;;;;5175680;27;20030;-94
2021/04/06 03:27:33;;;;;;;14.13;3.78;;;;;;;;;;5175327;27;20237;-95
2021/04/06 03:30:05;;;;;;;8.38;3.47;;;;;;;;;;5192139;27;20086;-95
2021/04/06 03:32:40;;;;;;;9.88;3.90;;;;;;;;;;5173308;27;20437;-96
2021/04/06 03:35:13;;;;;;;8.40;3.92;;;;;;;;;;5175184;27;20495;-95
2021/04/06 03:37:41;;;;;;;9.43;4.00;;;;;;;;;;5196787;27;20032;-94
2021/04/06 03:40:16;;;;;;;9.82;3.90;;;;;;;;;;5196911;27;20072;-96
2021/04/06 03:42:57;;;;;;;8.18;3.90;;;;;;;;;;5211457;27;20030;-96
2021/04/06 03:45:26;;;;;;;12.52;3.90;;;;;;;;;;5190843;27;20030;-96
2021/04/06 03:48:00;;;;;;;9.77;3.80;;;;;;;;;;5195844;27;20027;-95
2021/04/06 03:50:36;;;;;;;11.05;3.95;;;;;;;;;;5195063;27;20050;-95
2021/04/06 03:53:12;;;;;;;8.85;3.47;;;;;;;;;;5195091;27;20022;-94
2021/04/06 03:56:02;;;;;;;10.43;4.25;;;;;;;;;;5195788;27;20071;-95
2021/04/06 03:58:42;;;;;;;10.18;3.65;;;;;;;;;;5197128;27;20152;-94
2021/04/06 04:01:27;;;;;;;11.20;3.85;;;;;;;;;;5195400;27;20113;-94
2021/04/06 04:04:18;;;;;;;11.88;4.20;;;;;;;;;;5212429;27;20495;-96
2021/04/06 04:06:46;;;;;;;12.90;3.95;;;;;;;;;;5211345;27;20025;-94
2021/04/06 04:09:24;;;;;;;10.68;3.95;;;;;;;;;;5203639;27;20062;-94
2021/04/06 04:11:55;;;;;;;8.93;4.28;;;;;;;;;;5200986;27;20018;-94
2021/04/06 04:14:25;;;;;;;10.68;3.80;;;;;;;;;;5198980;27;20039;-96
2021/04/06 04:16:56;;;;;;;11.60;3.87;;;;;;;;;;5200506;27;20437;-94
2021/04/06 04:19:24;;;;;;;8.80;3.85;;;;;;;;;;5200628;27;20027;-93
2021/04/06 04:21:56;;;;;;;18.58;9.10;;;;;;;;;;5199818;27;20031;-95
2021/04/06 04:24:33;;;;;;;12.95;10.65;;;;;;;;;;5215382;27;20034;-94
2021/04/06 04:27:01;;;;;;;16.15;11.85;;;;;;;;;;5200796;27;20109;-95
2021/04/06 04:29:35;;;;;;;13.77;4.00;;;;;;;;;;5199924;27;20057;-95
2021/04/06 04:32:11;;;;;;;19.40;12.52;;;;;;;;;;5192120;27;20030;-94
2021/04/06 04:34:41;;;;;;;13.23;11.00;;;;;;;;;;5200576;27;20049;-94
2021/04/06 04:37:11;;;;;;;13.95;7.40;;;;;;;;;;5217985;27;20061;-95
2021/04/06 04:39:46;;;;;;;16.80;13.93;;;;;;;;;;5203335;27;20069;-94
2021/04/06 04:42:31;;;;;;;10.20;6.70;;;;;;;;;;5200288;27;20029;-95
2021/04/06 04:45:22;;;;;;;12.68;7.30;;;;;;;;;;5202108;27;20070;-93
2021/04/06 04:47:57;;;;;;;14.35;11.05;;;;;;;;;;5199026;27;20395;-94
2021/04/06 04:50:26;;;;;;;13.68;9.20;;;;;;;;;;5199101;27;20065;-95
2021/04/06 04:53:15;;;;;;;24.10;16.00;;;;;;;;;;5172322;27;20090;-94
2021/04/06 04:55:54;;;;;;;30.48;17.33;;;;;;;;;;5199148;27;20026;-96
2021/04/06 04:58:24;;;;;;;11.85;7.95;;;;;;;;;;5199514;27;20030;-93
2021/04/06 05:00:55;;;;;;;11.50;4.40;;;;;;;;;;5199883;27;20034;-95
2021/04/06 05:03:38;;;;;;;13.00;4.53;;;;;;;;;;5198586;27;20102;-94
2021/04/06 05:06:19;;;;;;;9.98;4.05;;;;;;;;;;5200986;27;20469;-93
2021/04/06 05:09:08;;;;;;;9.63;3.83;;;;;;;;;;5204315;27;20467;-96
2021/04/06 05:11:42;;;;;;;11.12;4.20;;;;;;;;;;5202169;27;20102;-94
2021/04/06 05:14:10;;;;;;;10.43;4.00;;;;;;;;;;5199938;27;20045;-95
2021/04/06 05:16:43;;;;;;;11.43;4.05;;;;;;;;;;5201727;27;20056;-94
2021/04/06 05:19:11;;;;;;;11.70;4.03;;;;;;;;;;5201034;27;20432;-94
2021/04/06 05:21:44;;;;;;;15.05;3.75;;;;;;;;;;5201028;27;20026;-94
2021/04/06 05:24:13;;;;;;;8.40;4.00;;;;;;;;;;5201147;27;20068;-93
2021/04/06 05:26:41;;;;;;;13.60;4.55;;;;;;;;;;5202337;27;20507;-96
2021/04/06 05:29:18;;;;;;;7.18;3.53;;;;;;;;;;5203713;27;20420;-96
2021/04/06 05:31:50;;;;;;;10.38;4.40;;;;;;;;;;5200928;27;20038;-94
2021/04/06 05:34:18;;;;;;;10.05;3.80;;;;;;;;;;5200526;27;20034;-95
2021/04/06 05:36:51;;;;;;;12.40;4.20;;;;;;;;;;5202135;27;20423;-96
2021/04/06 05:39:19;;;;;;;15.88;3.92;;;;;;;;;;5220815;27;20574;-95
2021/04/06 05:41:58;;;;;;;14.68;7.55;;;;;;;;;;5199355;27;20049;-96
2021/04/06 05:44:28;;;;;;;11.02;5.78;;;;;;;;;;5219982;27;20367;-95
2021/04/06 05:47:02;;;;;;;7.03;3.40;;;;;;;;;;5202176;27;20042;-95
2021/04/06 05:49:37;;;;;;;18.58;12.27;;;;;;;;;;5202637;27;20411;-94
2021/04/06 05:52:05;;;;;;;13.60;4.00;;;;;;;;;;5195192;27;20049;-94
2021/04/06 05:54:39;;;;;;;8.93;4.10;;;;;;;;;;5196541;27;20416;-94
2021/04/06 05:57:08;;;;;;;12.35;3.90;;;;;;;;;;5196172;27;20421;-95
2021/04/06 05:59:51;;;;;;;10.93;3.50;;;;;;;;;;5198966;27;20030;-94
2021/04/06 06:02:26;;;;;;;10.77;3.87;;;;;;;;;;5196052;27;20030;-95
2021/04/06 06:05:01;;;;;;;8.77;5.43;;;;;;;;;;5200137;27;20029;-95
2021/04/06 06:07:35;;;;;;;11.40;3.65;;;;;;;;;;5199310;27;20762;-94
2021/04/06 06:10:34;;;;;;;12.37;3.47;;;;;;;;;;5200919;27;20061;-93
2021/04/06 06:13:27;;;;;;;9.05;3.55;;;;;;;;;;5200909;27;20363;-94
2021/04/06 06:16:16;;;;;;;8.63;3.70;;;;;;;;;;5201929;27;20317;-94
2021/04/06 06:19:17;;;;;;;9.05;3.28;;;;;;;;;;5202020;27;20039;-95
2021/04/06 06:21:49;;;;;;;7.90;3.42;;;;;;;;;;5161790;27;20636;-94
2021/04/06 06:24:33;;;;;;;10.15;3.35;;;;;;;;;;5197720;27;20023;-95
2021/04/06 06:27:05;;;;;;;9.00;3.60;;;;;;;;;;5195087;27;20073;-94
2021/04/06 06:29:45;;;;;;;12.43;3.70;;;;;;;;;;5197090;27;20029;-95
2021/04/06 06:32:23;;;;;;;11.18;4.00;;;;;;;;;;5198555;27;20318;-95
2021/04/06 06:34:53;;;;;;;;;;;;;;;;;;5219656;27;20022;-94
2021/04/06 06:37:26;;;;;;;10.45;4.10;;;;;;;;;;5200509;27;19979;-94
2021/04/06 06:39:55;;;;;;;10.63;3.85;;;;;;;;;;5199919;27;20019;-93
2021/04/06 06:42:35;;;;;;;8.40;4.00;;;;;;;;;;5201572;27;20026;-94
2021/04/06 06:45:21;;;;;;;10.45;4.28;;;;;;;;;;5200949;27;20022;-95
2021/04/06 06:47:58;;;;;;;9.07;3.97;;;;;;;;;;5201625;27;20068;-95
2021/04/06 06:50:29;;;;;;;9.18;3.87;;;;;;;;;;5201310;27;20394;-95
2021/04/06 06:52:58;;;;;;;10.73;4.25;;;;;;;;;;5200996;27;20027;-94
2021/04/06 06:55:37;;;;;;;11.82;4.45;;;;;;;;;;5201043;27;20014;-95
2021/04/06 06:58:10;;;;;;;17.85;4.87;;;;;;;;;;5200557;27;20636;-95
2021/04/06 07:00:41;;;;;;;11.10;4.03;;;;;;;;;;5200817;27;20014;-94
2021/04/06 07:03:18;;;;;;;10.52;4.00;;;;;;;;;;5200005;27;20011;-93
2021/04/06 07:05:46;;;;;;;10.05;4.00;;;;;;;;;;5199320;27;20061;-93
2021/04/06 07:08:28;;;;;;;11.68;4.97;;;;;;;;;;5200054;27;20672;-94
2021/04/06 07:10:56;;;;;;;13.02;5.35;;;;;;;;;;5199979;27;20077;-95
2021/04/06 07:13:46;;;;;;;8.27;4.65;;;;;;;;;;5201828;27;20034;-95
2021/04/06 07:16:18;;;;;;;10.75;5.60;;;;;;;;;;5201270;27;20061;-96
2021/04/06 07:18:49;;;;;;;12.48;6.12;;;;;;;;;;5199636;27;20069;-96
2021/04/06 07:21:19;;;;;;;12.40;5.80;;;;;;;;;;5218005;27;20022;-96
2021/04/06 07:23:50;;;;;;;15.90;12.23;;;;;;;;;;5201968;27;20037;-95
2021/04/06 07:26:30;;;;;;;12.32;5.80;;;;;;;;;;5201977;27;20026;-95
2021/04/06 07:29:01;;;;;;;13.60;6.30;;;;;;;;;;5204449;27;20023;-95
2021/04/06 07:31:37;;;;;;;8.00;5.90;;;;;;;;;;5222950;27;20041;-96
2021/04/06 07:34:21;;;;;;;8.45;6.72;;;;;;;;;;5186966;27;20336;-95
2021/04/06 07:37:03;;;;;;;72.37;64.30;;;;;;;;;;5205872;27;20027;-96
2021/04/06 07:39:46;;;;;;;23.80;16.12;;;;;;;;;;5204907;27;20396;-94
2021/04/06 07:42:20;;;;;;;11.55;4.70;;;;;;;;;;5206269;27;20062;-96
2021/04/06 07:44:54;;;;;;;6.82;3.90;;;;;;;;;;5209974;27;20041;-95
2021/04/06 07:47:37;;;;;;;14.82;10.10;;;;;;;;;;5202481;27;20053;-94
2021/04/06 07:50:12;;;;;;;9.50;4.80;;;;;;;;;;5197015;27;20427;-96
2021/04/06 07:52:47;;;;;;;14.77;4.72;;;;;;;;;;5198822;27;20026;-96
2021/04/06 07:55:45;;;;;;;6.20;4.05;;;;;;;;;;5204857;27;20041;-95
2021/04/06 07:58:37;;;;;;;9.13;3.75;;;;;;;;;;5200874;27;20031;-95
2021/04/06 08:01:10;;;;;;;9.75;3.20;;;;;;;;;;5206499;27;20077;-96
2021/04/06 08:04:01;;;;;;;8.07;2.55;;;;;;;;;;5205327;27;20041;-95
2021/04/06 08:07:11;;;;;;;13.32;12.13;;;;;;;;;;5209872;27;20030;-95
2021/04/06 08:10:13;;;;;;;8.75;2.50;;;;;;;;;;5220967;27;20075;-94
2021/04/06 08:12:46;;;;;;;9.30;7.07;;;;;;;;;;5214849;27;20088;-95
2021/04/06 08:15:43;;;;;;;10.05;2.40;;;;;;;;;;5212738;27;20061;-96
2021/04/06 08:18:24;;;;;;;8.03;2.37;;;;;;;;;;5222708;27;20007;-94
2021/04/06 08:21:08;;;;;;;8.85;2.33;;;;;;;;;;5201557;27;20450;-95
2021/04/06 08:23:45;;;;;;;16.55;14.43;;;;;;;;;;5221998;27;20023;-96
2021/04/06 08:26:49;;;;;;;7.35;2.60;;;;;;;;;;5222816;27;20038;-95
2021/04/06 08:29:29;;;;;;;11.88;2.60;;;;;;;;;;5201278;27;20484;-94
2021/04/06 08:32:17;;;;;;;6.87;2.85;;;;;;;;;;5203916;27;20361;-95
2021/04/06 08:34:48;;;;;;;;;;;;;;;;;;5199276;27;20097;-95
2021/04/06 08:37:45;;;;;;;10.65;5.37;;;;;;;;;;5200367;27;19945;-96
2021/04/06 08:40:38;;;;;;;9.20;3.90;;;;;;;;;;5196131;27;20041;-96
2021/04/06 08:43:49;;;;;;;9.05;2.80;;;;;;;;;;5246181;27;20040;-95
2021/04/06 08:46:35;;;;;;;4.90;2.12;;;;;;;;;;5196603;27;20030;-96
2021/04/06 08:49:11;;;;;;;7.22;2.30;;;;;;;;;;5196707;27;20027;-95
2021/04/06 08:51:52;;;;;;;7.70;2.08;;;;;;;;;;5215748;27;20045;-94
2021/04/06 08:54:24;;;;;;;8.60;2.53;;;;;;;;;;5196619;27;20372;-95
2021/04/06 08:56:57;;;;;;;8.33;2.37;;;;;;;;;;5197402;27;20037;-94
2021/04/06 08:59:32;;;;;;;;;;;;;;;;;;5201170;27;20030;-94
2021/04/06 09:02:04;;;;;;;12.18;2.42;;;;;;;;;;5217966;27;19936;-92
2021/04/06 09:04:39;;;;;;;8.02;2.58;;;;;;;;;;5201126;27;20125;-94
2021/04/06 09:07:19;;;;;;;10.15;2.80;;;;;;;;;;5200139;27;20030;-94
2021/04/06 09:09:56;;;;;;;10.18;2.92;;;;;;;;;;5189596;27;20417;-84
2021/04/06 09:12:26;;;;;;;12.73;2.70;;;;;;;;;;5209345;27;20038;-83
2021/04/06 09:14:54;;;;;;;10.40;2.47;;;;;;;;;;5207400;27;20860;-83
2021/04/06 09:17:26;;;;;;;9.48;2.60;;;;;;;;;;5186543;27;20061;-84
2021/04/06 09:19:55;;;;;;;8.32;2.40;;;;;;;;;;5206014;27;20032;-84
2021/04/06 09:22:23;;;;;;;7.28;2.40;;;;;;;;;;5207486;27;20432;-82
2021/04/06 09:24:51;;;;;;;9.30;2.12;;;;;;;;;;5202512;27;20326;-82
2021/04/06 09:27:19;;;;;;;10.18;2.30;;;;;;;;;;5190628;27;20038;-82
2021/04/06 09:29:48;;;;;;;7.20;2.15;;;;;;;;;;5206821;27;20027;-83
2021/04/06 09:32:21;;;;;;;10.15;2.30;;;;;;;;;;5208294;27;20023;-82
2021/04/06 09:34:50;;;;;;;7.00;2.42;;;;;;;;;;5207386;27;20062;-83
2021/04/06 09:37:21;;;;;;;8.88;2.62;;;;;;;;;;5207536;27;20093;-83
2021/04/06 09:39:51;;;;;;;18.90;3.00;;;;;;;;;;5207145;27;20026;-83
2021/04/06 09:42:19;;;;;;;7.05;2.50;;;;;;;;;;5205351;27;20782;-85
2021/04/06 09:44:48;;;;;;;9.60;2.72;;;;;;;;;;5206989;27;20405;-84
2021/04/06 09:47:18;;;;;;;8.43;2.53;;;;;;;;;;5208921;27;20058;-84
2021/04/06 09:49:47;;;;;;;6.87;2.70;;;;;;;;;;5207220;27;20090;-85
2021/04/06 09:52:20;;;;;;;10.30;2.92;;;;;;;;;;5207715;27;20126;-84
2021/04/06 09:54:59;;;;;;;7.45;2.00;;;;;;;;;;5209167;27;20054;-84
2021/04/06 09:57:31;;;;;;;7.03;2.33;;;;;;;;;;5211254;27;20448;-84
2021/04/06 10:00:00;;;;;;;8.02;2.65;;;;;;;;;;5192474;27;20054;-85
2021/04/06 10:02:31;;;;;;;4.75;1.77;;;;;;;;;;5210764;27;20022;-84
2021/04/06 10:04:59;;;;;;;9.68;2.80;;;;;;;;;;5192425;27;20338;-84
2021/04/06 10:07:28;;;;;;;7.37;2.40;;;;;;;;;;5211688;27;20406;-84
2021/04/06 10:10:00;;;;;;;9.82;2.12;;;;;;;;;;5209037;27;20054;-84
2021/04/06 10:12:31;;;;;;;6.50;2.50;;;;;;;;;;5185368;27;20388;-84
2021/04/06 10:14:59;;;;;;;9.35;2.83;;;;;;;;;;5211289;27;20049;-84
2021/04/06 10:17:37;;;;;;;8.15;2.50;;;;;;;;;;5211150;27;20027;-84
2021/04/06 10:20:10;;;;;;;8.73;2.40;;;;;;;;;;5210388;27;20027;-84
2021/04/06 10:22:46;;;;;;;8.25;2.33;;;;;;;;;;5206193;27;20027;-84
2021/04/06 10:25:16;;;;;;;11.32;2.40;;;;;;;;;;5209538;27;20029;-84
2021/04/06 10:27:52;;;;;;;10.65;2.50;;;;;;;;;;5206631;27;20026;-84
2021/04/06 10:30:26;;;;;;;7.72;2.40;;;;;;;;;;5187011;27;20015;-84
2021/04/06 10:33:03;;;;;;;12.43;2.80;;;;;;;;;;5208887;27;20447;-84
2021/04/06 10:35:33;;;;;;;7.65;2.53;;;;;;;;;;5213787;27;20024;-83
2021/04/06 10:38:03;;;;;;;9.43;2.60;;;;;;;;;;5208506;27;20087;-82
2021/04/06 10:40:39;;;;;;;7.15;2.10;;;;;;;;;;5201644;27;20247;-86
2021/04/06 10:43:06;;;;;;;8.23;2.70;;;;;;;;;;5208521;27;20019;-83
2021/04/06 10:45:36;;;;;;;8.15;2.33;;;;;;;;;;5211812;27;20031;-83
2021/04/06 10:48:21;;;;;;;7.87;2.60;;;;;;;;;;5209484;27;20049;-84
2021/04/06 10:50:53;;;;;;;8.70;2.62;;;;;;;;;;5204758;27;20027;-83
2021/04/06 10:53:29;;;;;;;7.73;2.27;;;;;;;;;;5209265;27;20038;-83
2021/04/06 10:56:03;;;;;;;7.55;2.55;;;;;;;;;;5211511;27;20020;-83
2021/04/06 10:58:32;;;;;;;9.25;2.37;;;;;;;;;;5210089;27;20558;-83
2021/04/06 11:01:05;;;;;;;6.90;2.45;;;;;;;;;;5204940;27;20038;-83
2021/04/06 11:03:43;;;;;;;6.57;2.28;;;;;;;;;;5210446;27;20467;-84
2021/04/06 11:06:31;;;;;;;8.38;2.55;;;;;;;;;;5211956;27;20714;-83
2021/04/06 11:09:02;;;;;;;11.05;2.90;;;;;;;;;;5208533;27;20300;-83
2021/04/06 11:11:31;;;;;;;11.63;2.83;;;;;;;;;;5207470;27;20042;-84
2021/04/06 11:14:00;;;;;;;10.48;2.65;;;;;;;;;;5211485;27;20053;-83
2021/04/06 11:16:29;;;;;;;11.95;2.78;;;;;;;;;;5211042;27;20449;-83
2021/04/06 11:19:09;;;;;;;9.95;2.60;;;;;;;;;;5210901;27;20030;-84
2021/04/06 11:21:39;;;;;;;9.15;2.70;;;;;;;;;;5203896;27;20027;-84
2021/04/06 11:24:07;;;;;;;6.47;2.25;;;;;;;;;;5209617;27;20057;-82
2021/04/06 11:26:36;;;;;;;9.20;2.50;;;;;;;;;;5212503;27;20034;-83
2021/04/06 11:29:05;;;;;;;8.38;2.42;;;;;;;;;;5208713;27;20198;-83
2021/04/06 11:31:34;;;;;;;8.38;2.72;;;;;;;;;;5203435;27;20517;-83
2021/04/06 11:34:03;;;;;;;8.55;2.47;;;;;;;;;;5208773;27;20665;-83
2021/04/06 11:36:31;;;;;;;6.80;2.85;;;;;;;;;;5209480;27;20417;-84
2021/04/06 11:38:59;;;;;;;6.80;2.37;;;;;;;;;;5209555;27;20026;-83
2021/04/06 11:41:27;;;;;;;7.97;2.70;;;;;;;;;;5210047;27;20030;-84
2021/04/06 11:43:56;;;;;;;11.10;2.60;;;;;;;;;;5193016;27;20031;-83
2021/04/06 11:46:34;;;;;;;8.23;2.62;;;;;;;;;;5211727;27;20007;-83
2021/04/06 11:49:03;;;;;;;10.40;2.90;;;;;;;;;;5211863;27;20101;-84
2021/04/06 11:51:31;;;;;;;9.57;2.95;;;;;;;;;;5206319;27;20058;-84
2021/04/06 11:53:59;;;;;;;4.82;2.47;;;;;;;;;;5209527;27;20026;-83
2021/04/06 11:56:27;;;;;;;7.03;2.40;;;;;;;;;;5210491;27;20354;-84
2021/04/06 11:59:03;;;;;;;7.90;2.37;;;;;;;;;;5209163;27;20030;-83
2021/04/06 12:01:32;;;;;;;9.77;2.87;;;;;;;;;;5207096;27;20374;-84
2021/04/06 12:04:09;;;;;;;14.98;4.53;;;;;;;;;;5209642;27;20034;-86
2021/04/06 12:06:37;;;;;;;10.63;4.20;;;;;;;;;;5209428;27;20023;-85
2021/04/06 12:09:06;;;;;;;10.15;3.20;;;;;;;;;;5210196;27;20035;-85
2021/04/06 12:11:35;;;;;;;9.80;2.90;;;;;;;;;;5209032;27;20345;-86
2021/04/06 12:14:03;;;;;;;11.45;3.00;;;;;;;;;;5211169;27;20041;-86
2021/04/06 12:16:31;;;;;;;10.20;2.90;;;;;;;;;;5209216;27;20035;-86
2021/04/06 12:18:59;;;;;;;14.30;3.58;;;;;;;;;;5209719;27;20029;-85
2021/04/06 12:21:27;;;;;;;17.23;3.12;;;;;;;;;;5209904;27;20047;-86
2021/04/06 12:23:56;;;;;;;11.98;3.05;;;;;;;;;;5208431;27;20440;-85
2021/04/06 12:26:24;;;;;;;8.52;2.85;;;;;;;;;;5207674;27;20022;-85
2021/04/06 12:28:51;;;;;;;11.52;3.33;;;;;;;;;;5203941;27;20547;-86
2021/04/06 12:31:28;;;;;;;11.07;2.97;;;;;;;;;;5203691;27;20162;-86
2021/04/06 12:33:55;;;;;;;11.15;3.25;;;;;;;;;;5205535;27;20065;-86
2021/04/06 12:36:24;;;;;;;32.70;4.60;;;;;;;;;;5211267;27;20035;-85
2021/04/06 12:38:52;;;;;;;11.07;3.00;;;;;;;;;;5209959;27;20357;-85
2021/04/06 12:41:20;;;;;;;8.30;2.45;;;;;;;;;;5188984;27;20046;-85
2021/04/06 12:43:48;;;;;;;8.75;2.65;;;;;;;;;;5202403;27;20081;-86
2021/04/06 12:46:17;;;;;;;12.82;3.08;;;;;;;;;;5208246;27;20105;-86
2021/04/06 12:48:45;;;;;;;6.05;2.53;;;;;;;;;;5205425;27;20049;-85
2021/04/06 12:51:13;;;;;;;11.05;2.85;;;;;;;;;;5204960;27;20026;-85
2021/04/06 12:53:41;;;;;;;11.60;2.53;;;;;;;;;;5206870;27;20479;-85
2021/04/06 12:56:09;;;;;;;12.48;2.90;;;;;;;;;;5207712;27;20055;-86
2021/04/06 12:58:37;;;;;;;10.20;2.90;;;;;;;;;;5206005;27;20027;-86
2021/04/06 13:01:09;;;;;;;14.27;3.25;;;;;;;;;;5210100;27;20042;-86
2021/04/06 13:03:39;;;;;;;6.65;2.70;;;;;;;;;;5206065;27;20023;-85
2021/04/06 13:06:08;;;;;;;9.18;2.72;;;;;;;;;;5207057;27;20059;-85
2021/04/06 13:08:36;;;;;;;7.62;2.80;;;;;;;;;;5206496;27;20119;-85
2021/04/06 13:11:05;;;;;;;10.82;2.62;;;;;;;;;;5206290;27;20430;-86
2021/04/06 13:13:33;;;;;;;10.85;2.72;;;;;;;;;;5206225;27;20034;-84
2021/04/06 13:16:00;;;;;;;5.95;2.92;;;;;;;;;;5192234;27;20023;-85
2021/04/06 13:18:29;;;;;;;7.03;2.37;;;;;;;;;;5211108;27;20402;-85
2021/04/06 13:20:57;;;;;;;8.82;2.83;;;;;;;;;;5210274;27;20582;-86
2021/04/06 13:23:31;;;;;;;12.48;3.72;;;;;;;;;;5209771;27;20343;-86
2021/04/06 13:26:01;;;;;;;11.23;3.10;;;;;;;;;;5210492;27;20018;-86
2021/04/06 13:28:31;;;;;;;11.43;2.60;;;;;;;;;;5209358;27;20027;-86
2021/04/06 13:31:00;;;;;;;12.35;2.92;;;;;;;;;;5212523;27;20023;-85
2021/04/06 13:33:28;;;;;;;12.25;3.65;;;;;;;;;;5211689;27;20523;-85
2021/04/06 13:35:56;;;;;;;10.68;2.97;;;;;;;;;;5190049;27;20501;-85
2021/04/06 13:38:24;;;;;;;8.90;2.90;;;;;;;;;;5209663;27;20404;-86
2021/04/06 13:40:52;;;;;;;11.10;2.80;;;;;;;;;;5211107;27;20037;-86
2021/04/06 13:43:20;;;;;;;9.32;2.90;;;;;;;;;;5210665;27;20844;-86
2021/04/06 13:45:48;;;;;;;7.55;3.00;;;;;;;;;;5209175;27;20075;-85
2021/04/06 13:48:16;;;;;;;7.45;2.60;;;;;;;;;;5207774;27;20037;-86
2021/04/06 13:50:45;;;;;;;11.45;2.67;;;;;;;;;;5191861;27;20027;-85
2021/04/06 13:53:14;;;;;;;32.30;14.60;;;;;;;;;;5211107;27;20050;-85
2021/04/06 13:55:42;;;;;;;14.38;4.78;;;;;;;;;;5211536;27;20516;-85
2021/04/06 13:58:11;;;;;;;10.30;3.53;;;;;;;;;;5211603;27;20134;-85
2021/04/06 14:00:42;;;;;;;8.93;3.08;;;;;;;;;;5211456;27;20026;-86
2021/04/06 14:03:10;;;;;;;12.32;2.95;;;;;;;;;;5212937;27;20019;-86
2021/04/06 14:05:39;;;;;;;8.43;2.50;;;;;;;;;;5206923;27;20066;-85
2021/04/06 14:08:07;;;;;;;25.95;4.65;;;;;;;;;;5207092;27;20097;-85
2021/04/06 14:10:36;;;;;;;8.32;2.60;;;;;;;;;;5211518;27;20041;-85
2021/04/06 14:13:04;;;;;;;16.83;3.72;;;;;;;;;;5212335;27;20035;-85
2021/04/06 14:15:34;;;;;;;10.80;2.72;;;;;;;;;;5205138;27;20082;-85
2021/04/06 14:18:03;;;;;;;10.73;3.00;;;;;;;;;;5187135;27;20413;-86
2021/04/06 14:20:32;;;;;;;15.10;3.22;;;;;;;;;;5212175;27;20048;-85
2021/04/06 14:23:00;;;;;;;9.68;2.50;;;;;;;;;;5211803;27;20035;-86
2021/04/06 14:25:31;;;;;;;8.63;2.85;;;;;;;;;;5207669;27;20042;-86
2021/04/06 14:27:59;;;;;;;8.48;2.78;;;;;;;;;;5208496;27;20066;-85
2021/04/06 14:30:29;;;;;;;12.50;3.30;;;;;;;;;;5212341;27;20541;-85
2021/04/06 14:32:58;;;;;;;8.63;2.70;;;;;;;;;;5188014;27;20520;-85
2021/04/06 14:35:28;;;;;;;8.10;3.25;;;;;;;;;;5191612;27;20031;-85
2021/04/06 14:37:56;;;;;;;16.67;7.65;;;;;;;;;;5209625;27;20443;-87
2021/04/06 14:40:24;;;;;;;9.75;2.85;;;;;;;;;;5208558;27;20218;-86
2021/04/06 14:43:11;;;;;;;9.65;2.42;;;;;;;;;;5208041;27;20463;-86
2021/04/06 14:45:40;;;;;;;9.30;3.12;;;;;;;;;;5207296;27;20019;-85
2021/04/06 14:48:28;;;;;;;6.35;2.17;;;;;;;;;;5188444;27;20033;-85
2021/04/06 14:50:57;;;;;;;10.57;2.80;;;;;;;;;;5212709;27;20027;-86
2021/04/06 14:53:26;;;;;;;9.75;2.45;;;;;;;;;;5211970;27;20033;-85
2021/04/06 14:55:54;;;;;;;10.95;2.95;;;;;;;;;;5207879;27;20050;-85
2021/04/06 14:58:26;;;;;;;10.75;3.03;;;;;;;;;;5210533;27;20047;-85
2021/04/06 15:00:54;;;;;;;11.60;2.80;;;;;;;;;;5192006;27;20385;-85
2021/04/06 15:03:47;;;;;;;9.57;3.00;;;;;;;;;;5208789;27;20034;-86
2021/04/06 15:06:16;;;;;;;8.48;2.67;;;;;;;;;;5205603;27;20457;-86
2021/04/06 15:08:44;;;;;;;8.73;3.17;;;;;;;;;;5206813;27;20423;-85
2021/04/06 15:11:13;;;;;;;8.80;3.28;;;;;;;;;;5211962;27;20053;-85